Time;durP1;ratioP1;P1;durP2;ratioP2;P2;SDS_P1;SDS_P2;PMS_P1;PMS_P2;Temp;Humidity;BMP_temperature;BMP_pressure;BME280_temperature;BME280_humidity;BME280_pressure;Samples;Min_cycle;Max_cycle;Signal;HPM_P1;HPM_P2
2023/10/07 00:02:18;;;;;;;26.70;5.18;;;16.30;99.90;;;;;;4954174;28;20146;-73
2023/10/07 00:04:44;;;;;;;16.33;3.72;;;16.30;99.90;;;;;;4953632;28;20058;-75
2023/10/07 00:07:11;;;;;;;18.77;4.15;;;16.60;99.90;;;;;;4931204;28;20337;-72
2023/10/07 00:09:42;;;;;;;22.50;4.50;;;16.30;99.90;;;;;;4953410;28;20668;-71
2023/10/07 00:12:13;;;;;;;19.67;4.65;;;16.30;99.90;;;;;;4953683;28;20102;-74
2023/10/07 00:14:43;;;;;;;19.73;3.75;;;16.10;99.90;;;;;;4954282;28;20120;-74
2023/10/07 00:17:16;;;;;;;14.95;3.55;;;17.60;99.90;;;;;;4953387;28;20085;-73
2023/10/07 00:19:46;;;;;;;17.77;3.78;;;15.70;99.90;;;;;;4954958;28;20413;-70
2023/10/07 00:22:14;;;;;;;16.48;3.25;;;16.40;99.90;;;;;;4957099;28;20142;-74
2023/10/07 00:24:45;;;;;;;19.92;3.78;;;16.10;99.90;;;;;;4957548;28;20062;-74
2023/10/07 00:27:38;;;;;;;17.35;3.75;;;16.30;99.90;;;;;;4953195;28;20081;-71
2023/10/07 00:30:00;;;;;;;12.88;2.80;;;16.30;99.90;;;;;;4972281;28;20064;-72
2023/10/07 00:32:27;;;;;;;19.25;3.63;;;16.30;99.90;;;;;;4955980;28;20652;-74
2023/10/07 00:34:55;;;;;;;13.52;3.67;;;16.30;99.90;;;;;;4955935;28;20129;-72
2023/10/07 00:37:24;;;;;;;19.20;4.63;;;;;;;;;;4946458;28;20050;-75
2023/10/07 00:39:52;;;;;;;19.92;4.25;;;16.20;99.90;;;;;;4955086;28;20915;-75
2023/10/07 00:42:19;;;;;;;20.48;4.30;;;16.40;99.90;;;;;;4955688;28;20058;-73
2023/10/07 00:44:47;;;;;;;16.70;4.18;;;16.40;99.90;;;;;;4938324;28;20070;-74
2023/10/07 00:47:14;;;;;;;14.68;4.47;;;16.40;99.90;;;;;;4950343;28;20150;-72
2023/10/07 00:49:43;;;;;;;20.73;3.80;;;16.40;99.90;;;;;;4951575;28;20051;-73
2023/10/07 00:52:14;;;;;;;20.17;3.83;;;16.40;99.90;;;;;;4941562;28;20891;-71
2023/10/07 00:54:50;;;;;;;21.05;4.80;;;16.40;99.90;;;;;;4952101;28;20065;-78
2023/10/07 00:57:47;;;;;;;17.27;4.28;;;16.40;99.90;;;;;;4947276;28;20051;-77
2023/10/07 01:02:50;;;;;;;16.27;5.00;;;16.40;99.90;;;;;;4943903;28;20066;-73
2023/10/07 01:05:22;;;;;;;20.05;3.78;;;16.40;99.90;;;;;;4938421;28;20094;-75
2023/10/07 01:07:53;;;;;;;16.75;5.75;;;16.40;99.90;;;;;;4951327;28;20051;-74
2023/10/07 01:10:29;;;;;;;18.08;3.58;;;16.30;99.90;;;;;;4941006;28;20137;-74
2023/10/07 01:13:01;;;;;;;15.05;4.28;;;16.30;99.90;;;;;;4956840;28;20055;-73
2023/10/07 01:15:29;;;;;;;19.02;4.22;;;16.30;99.90;;;;;;4946886;28;20145;-74
2023/10/07 01:18:05;;;;;;;20.02;3.92;;;;;;;;;;4940838;28;20716;-76
2023/10/07 01:20:59;;;;;;;24.48;4.97;;;16.20;99.90;;;;;;4938226;28;20073;-74
2023/10/07 01:23:32;;;;;;;;;;;16.30;99.90;;;;;;4949517;28;20445;-72
2023/10/07 01:25:59;;;;;;;19.20;5.20;;;16.20;99.90;;;;;;4951006;28;20021;-73
2023/10/07 01:28:26;;;;;;;21.35;5.20;;;16.20;99.90;;;;;;4933018;28;20050;-75
2023/10/07 01:31:08;;;;;;;15.70;5.13;;;16.00;99.90;;;;;;4938323;28;20499;-74
2023/10/07 01:33:45;;;;;;;26.48;5.93;;;16.00;99.90;;;;;;4937807;28;20054;-74
2023/10/07 01:36:23;;;;;;;25.70;5.18;;;16.00;99.90;;;;;;4938144;28;20058;-75
2023/10/07 01:38:52;;;;;;;19.70;5.43;;;15.90;99.90;;;;;;4954995;28;20082;-74
2023/10/07 01:41:27;;;;;;;24.73;6.43;;;15.90;99.90;;;;;;4947927;28;20078;-73
2023/10/07 01:43:58;;;;;;;20.52;5.53;;;15.90;99.90;;;;;;4947119;28;20130;-74
2023/10/07 01:46:28;;;;;;;22.73;6.60;;;15.80;99.90;;;;;;4959117;28;20140;-74
2023/10/07 01:49:01;;;;;;;26.17;6.65;;;15.90;99.90;;;;;;4956450;28;20059;-73
2023/10/07 01:51:30;;;;;;;20.58;7.03;;;15.80;99.90;;;;;;4942155;28;20055;-73
2023/10/07 01:54:03;;;;;;;24.27;6.78;;;15.50;99.90;;;;;;4955941;28;20054;-74
2023/10/07 01:56:31;;;;;;;22.40;7.47;;;15.80;99.90;;;;;;4958367;28;20046;-73
2023/10/07 01:59:17;;;;;;;27.70;7.40;;;15.80;99.90;;;;;;4951952;28;20054;-73
2023/10/07 02:01:58;;;;;;;24.35;6.35;;;15.80;99.90;;;;;;4956113;28;20502;-75
2023/10/07 02:04:26;;;;;;;22.52;7.40;;;15.80;99.90;;;;;;4956447;28;20058;-73
2023/10/07 02:06:54;;;;;;;25.05;6.75;;;15.80;99.90;;;;;;4941495;28;20789;-73
2023/10/07 02:09:24;;;;;;;28.23;7.78;;;16.00;99.90;;;;;;4956977;28;20065;-73
2023/10/07 02:12:00;;;;;;;23.58;7.45;;;15.90;99.90;;;;;;4942746;28;20050;-72
2023/10/07 02:14:27;;;;;;;31.35;7.35;;;15.80;99.90;;;;;;4972871;28;20664;-73
2023/10/07 02:16:56;;;;;;;29.48;7.22;;;15.90;99.90;;;;;;4956821;28;20105;-73
2023/10/07 02:19:34;;;;;;;24.75;6.68;;;15.90;99.90;;;;;;4955856;28;20058;-72
2023/10/07 02:22:13;;;;;;;28.20;7.85;;;15.90;99.90;;;;;;4942779;28;20054;-72
2023/10/07 02:24:41;;;;;;;25.90;8.02;;;;;;;;;;4955708;28;20054;-74
2023/10/07 02:27:19;;;;;;;18.48;6.05;;;15.90;99.90;;;;;;4958133;28;20065;-72
2023/10/07 02:29:57;;;;;;;29.10;7.07;;;15.90;99.90;;;;;;4949419;28;20050;-73
2023/10/07 02:32:23;;;;;;;24.77;6.40;;;15.90;99.90;;;;;;4949388;28;20597;-75
2023/10/07 02:34:52;;;;;;;22.20;6.20;;;16.00;99.90;;;;;;4940593;28;20046;-72
2023/10/07 02:37:25;;;;;;;16.05;5.78;;;15.90;99.90;;;;;;4955036;28;20046;-73
2023/10/07 02:39:56;;;;;;;17.90;6.22;;;;;;;;;;4955220;28;20097;-74
2023/10/07 02:42:28;;;;;;;30.95;6.50;;;16.00;99.90;;;;;;4948236;28;20053;-74
2023/10/07 02:45:21;;;;;;;20.27;6.35;;;15.90;99.90;;;;;;4938192;28;20528;-73
2023/10/07 02:47:51;;;;;;;21.00;5.43;;;16.10;99.90;;;;;;4949685;28;20102;-73
2023/10/07 02:50:18;;;;;;;20.92;5.68;;;16.10;99.90;;;;;;4951032;28;20051;-72
2023/10/07 02:52:47;;;;;;;16.00;4.45;;;16.10;99.90;;;;;;4944997;28;20130;-73
2023/10/07 02:57:46;;;;;;;18.38;5.00;;;16.10;99.90;;;;;;4947470;28;20057;-73
2023/10/07 03:00:35;;;;;;;19.45;5.72;;;16.10;99.90;;;;;;4943870;28;20593;-75
2023/10/07 03:04:02;;;;;;;19.17;5.22;;;16.20;99.90;;;;;;4938558;28;20055;-71
2023/10/07 03:06:00;;;;;;;21.77;5.15;;;16.20;99.90;;;;;;4930419;28;20126;-74
2023/10/07 03:08:40;;;;;;;20.40;5.03;;;16.20;99.90;;;;;;4938987;28;20054;-74
2023/10/07 03:11:13;;;;;;;24.40;5.60;;;16.20;99.90;;;;;;4942508;28;20393;-72
2023/10/07 03:13:49;;;;;;;19.38;5.20;;;16.20;99.90;;;;;;4950503;28;20066;-72
2023/10/07 03:18:48;;;;;;;18.25;4.82;;;16.20;99.90;;;;;;4948850;28;20094;-73
2023/10/07 03:21:15;;;;;;;18.27;4.80;;;16.30;99.90;;;;;;4936606;28;20051;-73
2023/10/07 03:23:58;;;;;;;21.42;4.88;;;16.30;99.90;;;;;;4951580;28;20114;-75
2023/10/07 03:26:37;;;;;;;16.45;5.18;;;16.30;99.90;;;;;;4934762;28;20578;-71
2023/10/07 03:29:05;;;;;;;16.55;4.53;;;16.30;99.90;;;;;;4930618;29;20303;-72
2023/10/07 03:34:08;;;;;;;16.23;4.20;;;16.30;99.90;;;;;;4918785;29;20066;-74
2023/10/07 03:36:41;;;;;;;19.25;5.03;;;16.30;99.90;;;;;;4924431;29;20095;-73
2023/10/07 03:41:43;;;;;;;13.98;4.10;;;16.40;99.90;;;;;;4930235;28;20590;-73
2023/10/07 03:44:31;;;;;;;16.15;4.10;;;16.40;99.90;;;;;;4883254;29;20143;-71
2023/10/07 03:46:57;;;;;;;16.83;4.55;;;16.40;99.90;;;;;;4885413;29;20060;-73
2023/10/07 03:49:27;;;;;;;15.18;4.10;;;16.40;99.90;;;;;;4879655;29;20126;-73
2023/10/07 03:52:12;;;;;;;20.02;4.20;;;16.40;99.90;;;;;;4879895;29;20473;-74
2023/10/07 03:54:40;;;;;;;11.90;3.55;;;16.40;99.90;;;;;;4867244;29;20954;-74
2023/10/07 03:57:07;;;;;;;16.92;4.35;;;16.40;99.90;;;;;;4889096;29;20061;-75
2023/10/07 03:59:36;;;;;;;20.58;4.07;;;;;;;;;;4913956;28;20133;-73
2023/10/07 04:04:59;;;;;;;13.95;3.72;;;;;;;;;;4919524;29;20585;-74
2023/10/07 04:07:27;;;;;;;15.95;4.47;;;16.40;99.90;;;;;;4920903;28;20133;-73
2023/10/07 04:09:54;;;;;;;13.18;3.85;;;16.40;99.90;;;;;;4914102;28;20099;-74
2023/10/07 04:12:22;;;;;;;15.68;4.35;;;16.30;99.90;;;;;;4921963;29;20073;-71
2023/10/07 04:14:52;;;;;;;18.02;5.20;;;16.40;99.90;;;;;;4910453;29;20060;-74
2023/10/07 04:17:18;;;;;;;13.65;3.90;;;16.40;99.90;;;;;;4904280;29;20075;-73
2023/10/07 04:19:53;;;;;;;23.45;4.93;;;16.40;99.90;;;;;;4904279;29;20166;-72
2023/10/07 04:22:19;;;;;;;15.10;4.03;;;16.40;99.90;;;;;;4929148;28;20200;-72
2023/10/07 04:24:45;;;;;;;16.45;5.05;;;16.40;99.90;;;;;;4940069;28;20096;-73
2023/10/07 04:27:21;;;;;;;12.70;4.78;;;16.40;99.90;;;;;;4953459;28;20195;-73
2023/10/07 04:29:51;;;;;;;13.45;5.25;;;16.50;99.90;;;;;;4941107;28;20077;-74
2023/10/07 04:32:23;;;;;;;14.77;4.10;;;16.40;99.90;;;;;;4945394;28;20137;-72
2023/10/07 04:37:47;;;;;;;20.98;4.35;;;16.40;99.90;;;;;;4921217;28;20062;-73
2023/10/07 04:43:25;;;;;;;19.27;4.80;;;16.40;99.90;;;;;;4960013;28;20406;-73
2023/10/07 04:45:48;;;;;;;17.77;4.10;;;16.40;99.90;;;;;;4954897;28;20567;-76
2023/10/07 04:48:24;;;;;;;15.63;4.80;;;16.40;99.90;;;;;;4956149;28;20579;-75
2023/10/07 04:51:03;;;;;;;15.27;4.25;;;16.10;99.90;;;;;;4956597;28;20054;-74
2023/10/07 04:53:38;;;;;;;19.42;5.03;;;16.40;99.90;;;;;;4957109;28;20084;-76
2023/10/07 04:56:09;;;;;;;15.68;3.83;;;16.30;99.90;;;;;;4957272;28;20050;-72
2023/10/07 04:58:39;;;;;;;17.80;4.40;;;16.40;99.90;;;;;;4957142;28;20047;-73
2023/10/07 05:01:22;;;;;;;16.92;4.05;;;16.60;99.90;;;;;;4947763;28;20469;-74
2023/10/07 05:03:55;;;;;;;15.10;4.38;;;16.40;99.90;;;;;;4952957;28;20054;-73
2023/10/07 05:06:24;;;;;;;17.73;3.95;;;16.40;99.90;;;;;;4931395;28;20058;-73
2023/10/07 05:08:51;;;;;;;16.92;3.60;;;16.50;99.90;;;;;;5000453;23;20159;-72
2023/10/07 05:11:20;;;;;;;15.55;3.95;;;16.50;99.90;;;;;;5015546;28;20123;-75
2023/10/07 05:13:47;;;;;;;13.05;3.92;;;16.40;99.90;;;;;;5015555;28;20050;-72
2023/10/07 05:16:15;;;;;;;15.40;4.07;;;16.40;99.90;;;;;;4998431;28;20049;-72
2023/10/07 05:18:42;;;;;;;13.85;4.03;;;16.50;99.90;;;;;;5015568;28;20056;-72
2023/10/07 05:21:08;;;;;;;17.83;4.95;;;16.40;99.90;;;;;;5015580;28;20515;-72
2023/10/07 05:23:34;;;;;;;13.00;5.10;;;16.50;99.90;;;;;;5015209;28;20047;-74
2023/10/07 05:26:03;;;;;;;14.50;4.63;;;16.50;99.90;;;;;;4994994;28;20409;-72
2023/10/07 05:28:33;;;;;;;13.35;3.80;;;16.50;99.90;;;;;;4997820;28;20068;-74
2023/10/07 05:31:03;;;;;;;18.00;4.30;;;16.50;99.90;;;;;;4992615;28;20053;-71
2023/10/07 05:33:48;;;;;;;16.92;4.35;;;16.40;99.90;;;;;;4996935;28;20061;-73
2023/10/07 05:36:14;;;;;;;17.77;3.95;;;16.50;99.90;;;;;;4996532;28;20075;-74
2023/10/07 05:38:47;;;;;;;16.30;3.97;;;16.40;99.90;;;;;;4995999;28;20603;-71
2023/10/07 05:41:15;;;;;;;17.63;4.20;;;16.40;99.90;;;;;;4975151;28;20053;-73
2023/10/07 05:44:07;;;;;;;15.27;4.00;;;16.40;99.90;;;;;;4990263;28;20064;-72
2023/10/07 05:46:36;;;;;;;15.48;4.75;;;17.80;99.90;;;;;;4995816;28;20058;-72
2023/10/07 05:49:10;;;;;;;17.17;4.35;;;16.50;99.90;;;;;;4993866;28;20064;-74
2023/10/07 05:51:37;;;;;;;18.15;4.57;;;16.30;99.90;;;;;;5010031;28;20123;-73
2023/10/07 05:54:05;;;;;;;15.20;3.53;;;19.80;99.90;;;;;;4996328;28;20061;-74
2023/10/07 05:56:47;;;;;;;13.68;3.90;;;16.50;99.90;;;;;;4996113;28;20129;-73
2023/10/07 05:59:15;;;;;;;13.00;3.30;;;16.50;99.90;;;;;;4996096;28;20061;-72
2023/10/07 06:01:43;;;;;;;14.85;4.13;;;16.50;99.90;;;;;;4997009;28;20045;-74
2023/10/07 06:04:11;;;;;;;15.80;4.15;;;16.40;99.90;;;;;;4998338;28;20076;-68
2023/10/07 06:06:38;;;;;;;16.08;4.15;;;;;;;;;;5014532;28;20042;-71
2023/10/07 06:09:10;;;;;;;15.85;3.85;;;16.50;99.90;;;;;;5013088;28;20073;-72
2023/10/07 06:11:36;;;;;;;16.55;4.85;;;16.50;99.90;;;;;;5013389;28;20052;-72
2023/10/07 06:14:04;;;;;;;15.27;4.07;;;16.40;99.90;;;;;;5013473;28;20057;-72
2023/10/07 06:16:30;;;;;;;11.68;3.60;;;16.50;99.90;;;;;;4995056;28;20108;-73
2023/10/07 06:18:56;;;;;;;16.67;4.43;;;16.50;99.90;;;;;;5012909;28;20671;-71
2023/10/07 06:21:50;;;;;;;18.13;5.20;;;16.60;99.90;;;;;;4981373;28;20175;-73
2023/10/07 06:24:21;;;;;;;23.73;5.05;;;16.50;99.90;;;;;;4968290;28;20161;-74
2023/10/07 06:26:53;;;;;;;15.32;4.18;;;16.50;99.90;;;;;;4985363;28;20076;-72
2023/10/07 06:29:22;;;;;;;14.52;4.07;;;16.50;99.90;;;;;;4973881;28;20132;-75
2023/10/07 06:32:13;;;;;;;16.63;4.60;;;16.50;99.90;;;;;;4962736;28;20072;-76
2023/10/07 06:34:41;;;;;;;14.48;4.93;;;16.60;99.90;;;;;;4962629;28;20209;-73
2023/10/07 06:37:09;;;;;;;16.73;4.55;;;16.50;99.90;;;;;;4976285;28;20050;-73
2023/10/07 06:39:35;;;;;;;17.58;4.63;;;16.50;99.90;;;;;;4982541;28;20045;-76
2023/10/07 06:42:01;;;;;;;14.65;3.75;;;16.80;99.90;;;;;;4981365;28;20120;-74
2023/10/07 06:44:30;;;;;;;18.35;4.47;;;16.40;99.90;;;;;;4980067;28;20501;-74
2023/10/07 06:46:56;;;;;;;31.52;5.38;;;16.50;99.90;;;;;;4996286;28;20057;-75
2023/10/07 06:49:22;;;;;;;14.63;4.57;;;16.50;99.90;;;;;;4981662;28;20188;-75
2023/10/07 06:52:12;;;;;;;12.02;4.10;;;16.50;99.90;;;;;;4968425;28;20065;-75
2023/10/07 06:54:43;;;;;;;17.33;4.35;;;16.50;99.90;;;;;;4966657;28;20049;-77
2023/10/07 06:57:10;;;;;;;16.67;3.72;;;16.50;99.90;;;;;;4969111;28;20536;-75
2023/10/07 06:59:40;;;;;;;20.30;4.78;;;16.70;99.90;;;;;;4961378;28;20061;-73
2023/10/07 07:02:09;;;;;;;16.10;4.95;;;;;;;;;;4982222;28;20702;-72
2023/10/07 07:05:16;;;;;;;18.17;4.47;;;18.60;99.90;;;;;;5003208;28;20478;-74
2023/10/07 07:07:54;;;;;;;21.45;4.45;;;16.50;99.90;;;;;;4968034;28;20052;-78
2023/10/07 07:10:28;;;;;;;23.95;5.40;;;16.40;99.90;;;;;;4963404;28;20065;-72
2023/10/07 07:13:34;;;;;;;16.67;4.53;;;16.60;99.90;;;;;;4990630;28;20049;-72
2023/10/07 07:16:08;;;;;;;15.48;4.50;;;16.50;99.90;;;;;;4983064;28;20140;-72
2023/10/07 07:18:39;;;;;;;18.50;5.25;;;16.50;99.90;;;;;;4995223;28;20087;-76
2023/10/07 07:21:31;;;;;;;18.17;4.07;;;16.70;99.90;;;;;;5012141;28;20418;-76
2023/10/07 07:23:58;;;;;;;11.25;3.95;;;20.60;99.90;;;;;;5012679;28;20037;-74
2023/10/07 07:26:23;;;;;;;13.98;4.25;;;16.70;99.90;;;;;;5014208;28;20049;-72
2023/10/07 07:28:54;;;;;;;13.60;4.32;;;16.80;99.90;;;;;;5012154;28;20060;-71
2023/10/07 07:31:33;;;;;;;19.30;4.17;;;16.90;99.90;;;;;;5013192;28;20056;-72
2023/10/07 07:34:09;;;;;;;18.48;4.60;;;17.00;99.90;;;;;;5006567;28;20057;-73
2023/10/07 07:39:00;;;;;;;18.35;5.05;;;17.20;99.90;;;;;;5012679;28;20510;-75
2023/10/07 07:41:26;;;;;;;16.83;3.50;;;17.20;99.90;;;;;;5013015;28;20128;-73
2023/10/07 07:43:53;;;;;;;15.18;4.15;;;17.20;99.90;;;;;;5012721;28;20041;-73
2023/10/07 07:46:51;;;;;;;20.90;4.43;;;17.30;99.90;;;;;;5013681;28;20053;-75
2023/10/07 07:49:17;;;;;;;13.95;3.80;;;17.30;99.90;;;;;;4997907;28;20057;-73
2023/10/07 07:51:44;;;;;;;16.80;3.75;;;17.30;99.90;;;;;;5013681;28;20360;-75
2023/10/07 07:54:10;;;;;;;19.75;3.72;;;17.40;99.90;;;;;;5013299;28;20064;-77
2023/10/07 07:56:36;;;;;;;12.05;4.22;;;17.40;99.90;;;;;;5013176;28;20045;-72
2023/10/07 07:59:13;;;;;;;12.30;3.67;;;17.50;99.90;;;;;;4997020;28;20049;-73
2023/10/07 08:02:11;;;;;;;11.15;3.45;;;17.60;99.90;;;;;;5012676;28;20072;-72
2023/10/07 08:04:37;;;;;;;11.55;3.25;;;17.50;99.90;;;;;;5011762;28;20057;-74
2023/10/07 08:07:24;;;;;;;17.35;3.80;;;17.50;99.90;;;;;;5012594;28;20072;-75
2023/10/07 08:09:57;;;;;;;18.42;3.78;;;17.50;99.90;;;;;;5012308;28;20061;-74
2023/10/07 08:12:28;;;;;;;12.57;3.60;;;17.60;99.90;;;;;;5005256;28;20057;-72
2023/10/07 08:17:44;;;;;;;10.52;3.10;;;17.70;99.90;;;;;;5007098;28;20049;-75
2023/10/07 08:20:13;;;;;;;10.32;3.08;;;15.80;99.90;;;;;;5011350;28;20769;-75
2023/10/07 08:22:45;;;;;;;13.23;3.72;;;17.80;99.90;;;;;;5007220;28;20239;-72
2023/10/07 08:25:15;;;;;;;11.00;3.00;;;17.90;99.90;;;;;;4995652;28;20072;-74
2023/10/07 08:27:44;;;;;;;12.55;3.75;;;17.90;99.90;;;;;;5029829;28;20053;-75
2023/10/07 08:30:14;;;;;;;11.95;3.22;;;18.00;99.90;;;;;;4996042;28;20041;-75
2023/10/07 08:32:43;;;;;;;13.88;3.35;;;18.00;99.90;;;;;;4996103;28;20050;-74
2023/10/07 08:35:16;;;;;;;11.32;3.15;;;18.00;99.90;;;;;;5010000;28;20081;-73
2023/10/07 08:37:51;;;;;;;14.07;3.88;;;18.00;99.90;;;;;;5012017;28;20049;-73
2023/10/07 08:40:28;;;;;;;18.35;4.75;;;18.00;99.90;;;;;;5009402;28;20115;-71
2023/10/07 08:43:04;;;;;;;11.15;2.60;;;18.00;99.90;;;;;;5032577;28;20065;-72
2023/10/07 08:45:39;;;;;;;12.88;3.30;;;18.10;99.90;;;;;;5016067;28;20052;-73
2023/10/07 08:48:15;;;;;;;10.55;2.90;;;18.10;99.90;;;;;;5033078;28;20167;-72
2023/10/07 08:50:58;;;;;;;10.32;3.40;;;18.30;99.90;;;;;;5016305;28;20049;-71
2023/10/07 08:53:26;;;;;;;11.73;2.80;;;18.40;99.90;;;;;;5013498;28;20888;-70
2023/10/07 08:55:54;;;;;;;13.00;3.22;;;18.40;99.90;;;;;;5014711;28;20669;-72
2023/10/07 08:58:26;;;;;;;15.35;3.90;;;18.50;99.90;;;;;;4998447;28;20096;-72
2023/10/07 09:00:52;;;;;;;12.98;3.75;;;18.60;99.90;;;;;;5014656;28;20061;-74
2023/10/07 09:03:19;;;;;;;13.20;3.63;;;18.70;99.90;;;;;;5007688;28;20519;-70
2023/10/07 09:05:48;;;;;;;9.88;3.40;;;18.80;99.90;;;;;;5014923;28;20833;-73
2023/10/07 09:08:15;;;;;;;13.27;3.28;;;19.00;99.90;;;;;;5015137;28;20068;-71
2023/10/07 09:10:48;;;;;;;18.00;4.50;;;18.90;99.90;;;;;;5015581;28;20638;-73
2023/10/07 09:13:19;;;;;;;13.48;3.72;;;19.20;99.90;;;;;;5015500;28;20045;-72
2023/10/07 09:15:53;;;;;;;17.00;3.90;;;19.10;99.90;;;;;;5015051;28;20092;-72
2023/10/07 09:18:22;;;;;;;15.45;3.97;;;19.20;99.90;;;;;;5014857;28;20049;-71
2023/10/07 09:20:50;;;;;;;13.45;4.20;;;19.10;99.90;;;;;;5014986;28;20050;-73
2023/10/07 09:23:23;;;;;;;13.70;3.10;;;19.00;99.90;;;;;;5014736;28;20112;-72
2023/10/07 09:25:52;;;;;;;17.98;4.72;;;18.90;99.90;;;;;;5015013;28;20056;-74
2023/10/07 09:28:19;;;;;;;17.00;4.10;;;18.80;99.90;;;;;;5015497;28;20053;-73
2023/10/07 09:30:46;;;;;;;16.88;3.53;;;19.90;99.90;;;;;;5014510;28;20531;-72
2023/10/07 09:33:17;;;;;;;16.90;3.85;;;18.70;99.90;;;;;;5015385;28;20154;-71
2023/10/07 09:35:49;;;;;;;10.35;3.10;;;18.80;99.90;;;;;;4999106;28;20076;-74
2023/10/07 09:38:34;;;;;;;13.60;3.05;;;18.80;99.90;;;;;;4988414;28;20400;-72
2023/10/07 09:41:45;;;;;;;16.20;4.38;;;18.80;99.90;;;;;;5000253;28;20061;-71
2023/10/07 09:43:51;;;;;;;18.90;3.65;;;18.80;99.90;;;;;;4991013;28;20563;-70
2023/10/07 09:46:27;;;;;;;14.15;2.70;;;18.80;99.90;;;;;;4977651;28;20050;-71
2023/10/07 09:49:18;;;;;;;17.35;3.38;;;18.80;99.90;;;;;;4956244;28;20450;-70
2023/10/07 09:51:47;;;;;;;15.48;3.13;;;18.10;99.90;;;;;;4938404;28;20478;-70
2023/10/07 09:54:47;;;;;;;13.43;3.42;;;18.70;99.90;;;;;;4946484;28;20066;-75
2023/10/07 09:57:44;;;;;;;15.50;3.20;;;15.60;99.90;;;;;;4922582;28;20050;-75
2023/10/07 10:03:12;;;;;;;12.20;2.72;;;18.70;99.90;;;;;;4953968;28;20678;-73
2023/10/07 10:05:53;;;;;;;14.25;3.22;;;18.70;99.90;;;;;;4938500;28;20085;-69
2023/10/07 10:08:55;;;;;;;16.70;3.30;;;18.80;99.90;;;;;;4937433;28;20050;-72
2023/10/07 10:11:41;;;;;;;15.48;3.83;;;18.80;99.90;;;;;;4984265;28;20754;-71
2023/10/07 10:16:57;;;;;;;15.13;4.13;;;18.80;99.90;;;;;;4956599;28;20061;-71
2023/10/07 10:19:47;;;;;;;14.50;3.75;;;18.80;99.90;;;;;;4973760;28;20061;-71
2023/10/07 10:22:22;;;;;;;12.90;3.47;;;18.90;99.90;;;;;;5013776;28;20057;-72
2023/10/07 10:24:54;;;;;;;14.38;4.78;;;18.90;99.90;;;;;;5030760;28;20678;-71
2023/10/07 10:27:20;;;;;;;18.35;3.80;;;19.00;99.90;;;;;;5013717;28;20552;-73
2023/10/07 10:30:06;;;;;;;17.83;3.83;;;19.20;99.90;;;;;;5014517;28;20041;-72
2023/10/07 10:32:36;;;;;;;13.00;3.17;;;19.30;99.90;;;;;;5013948;28;20072;-71
2023/10/07 10:35:07;;;;;;;14.38;4.07;;;19.40;99.90;;;;;;5028897;28;20065;-74
2023/10/07 10:37:34;;;;;;;12.75;4.15;;;19.60;99.90;;;;;;5023134;28;20599;-75
2023/10/07 10:40:15;;;;;;;12.65;3.25;;;19.70;99.90;;;;;;5012779;28;20060;-71
2023/10/07 10:42:42;;;;;;;14.75;3.33;;;19.60;99.90;;;;;;5013002;28;20046;-71
2023/10/07 10:45:17;;;;;;;13.63;4.05;;;19.60;99.90;;;;;;4996172;28;20172;-73
2023/10/07 10:47:52;;;;;;;9.00;3.20;;;19.50;99.90;;;;;;5012553;28;20045;-71
2023/10/07 10:50:28;;;;;;;17.38;4.00;;;19.50;99.90;;;;;;5013467;28;20064;-73
2023/10/07 10:52:55;;;;;;;12.25;3.38;;;19.40;99.90;;;;;;5012798;28;20116;-71
2023/10/07 10:55:24;;;;;;;11.95;3.83;;;19.80;99.90;;;;;;5008871;28;20056;-70
2023/10/07 10:57:52;;;;;;;16.08;4.20;;;19.30;99.90;;;;;;5011302;28;20049;-72
2023/10/07 11:00:24;;;;;;;14.60;3.67;;;20.90;99.90;;;;;;5011732;28;20058;-72
2023/10/07 11:02:52;;;;;;;9.60;2.65;;;19.40;99.90;;;;;;5028036;28;20041;-72
2023/10/07 11:05:21;;;;;;;13.55;2.95;;;;;;;;;;5011441;28;20874;-72
2023/10/07 11:07:49;;;;;;;12.13;3.25;;;19.30;99.90;;;;;;5011851;28;20061;-68
2023/10/07 11:10:20;;;;;;;10.18;2.50;;;19.30;99.90;;;;;;5012132;28;20124;-73
2023/10/07 11:12:52;;;;;;;13.35;3.45;;;19.30;99.90;;;;;;5011166;28;20586;-73
2023/10/07 11:15:29;;;;;;;14.95;3.25;;;19.40;99.90;;;;;;5013107;28;20065;-74
2023/10/07 11:18:12;;;;;;;15.82;3.33;;;19.30;99.90;;;;;;4996268;28;20588;-73
2023/10/07 11:20:40;;;;;;;12.55;3.55;;;19.30;99.90;;;;;;5013301;28;20081;-72
2023/10/07 11:23:08;;;;;;;18.67;3.78;;;19.20;99.90;;;;;;5013845;28;20045;-73
2023/10/07 11:25:41;;;;;;;15.85;3.70;;;19.20;99.90;;;;;;5011990;28;20092;-78
2023/10/07 11:28:09;;;;;;;19.95;4.85;;;19.30;99.90;;;;;;5007976;28;20046;-72
2023/10/07 11:30:48;;;;;;;14.07;3.83;;;19.40;99.90;;;;;;5013823;28;20155;-73
2023/10/07 11:33:17;;;;;;;14.38;3.15;;;19.30;99.90;;;;;;5009790;28;20829;-71
2023/10/07 11:35:59;;;;;;;11.55;3.90;;;19.30;99.90;;;;;;5007849;28;20063;-69
2023/10/07 11:38:26;;;;;;;14.15;4.05;;;19.20;99.90;;;;;;5010212;28;20076;-75
2023/10/07 11:40:52;;;;;;;8.88;3.72;;;19.10;99.90;;;;;;5012932;28;20052;-72
2023/10/07 11:43:20;;;;;;;13.95;3.45;;;19.00;99.90;;;;;;5012866;28;20081;-70
2023/10/07 11:45:50;;;;;;;12.48;3.53;;;18.70;99.90;;;;;;4996291;28;20045;-72
2023/10/07 11:48:21;;;;;;;16.70;4.53;;;18.60;99.90;;;;;;5011873;28;20053;-72
2023/10/07 11:50:47;;;;;;;15.68;3.90;;;18.70;99.90;;;;;;5012627;28;20045;-73
2023/10/07 11:53:13;;;;;;;15.73;3.88;;;18.70;99.90;;;;;;5012085;28;20262;-71
2023/10/07 11:55:38;;;;;;;14.60;4.22;;;18.60;99.90;;;;;;5013001;28;20057;-72
2023/10/07 11:58:08;;;;;;;13.07;3.88;;;18.60;99.90;;;;;;5007769;28;20088;-72
2023/10/07 12:00:43;;;;;;;12.88;4.55;;;18.60;99.90;;;;;;4977253;28;20506;-70
2023/10/07 12:03:12;;;;;;;11.40;3.25;;;18.50;99.90;;;;;;4962600;28;20057;-74
2023/10/07 12:05:53;;;;;;;14.95;3.63;;;18.70;99.90;;;;;;4972332;28;20060;-74
2023/10/07 12:08:26;;;;;;;13.13;3.85;;;;;;;;;;5004607;28;20076;-73
2023/10/07 12:10:53;;;;;;;18.95;4.22;;;19.10;99.90;;;;;;4966896;28;20520;-73
2023/10/07 12:13:19;;;;;;;14.35;4.15;;;19.20;99.90;;;;;;4989157;28;20378;-72
2023/10/07 12:16:06;;;;;;;12.60;3.50;;;19.30;99.90;;;;;;4973365;28;20072;-72
2023/10/07 12:18:34;;;;;;;15.38;4.07;;;19.30;99.90;;;;;;4992879;28;20053;-71
2023/10/07 12:21:04;;;;;;;12.75;3.10;;;19.30;99.90;;;;;;4959538;28;20067;-70
2023/10/07 12:23:33;;;;;;;11.10;3.45;;;19.40;99.90;;;;;;4973654;28;20061;-73
2023/10/07 12:26:08;;;;;;;16.15;4.70;;;19.30;99.90;;;;;;4991920;28;20047;-72
2023/10/07 12:28:35;;;;;;;15.23;3.45;;;19.20;99.90;;;;;;4971473;28;20065;-69
2023/10/07 12:31:10;;;;;;;17.55;4.25;;;19.10;99.90;;;;;;4985796;28;20058;-70
2023/10/07 12:33:36;;;;;;;16.85;3.63;;;19.10;99.90;;;;;;5007363;28;20081;-76
2023/10/07 12:36:09;;;;;;;15.63;3.90;;;19.10;99.90;;;;;;4975550;28;20885;-74
2023/10/07 12:38:35;;;;;;;11.18;3.70;;;18.90;99.90;;;;;;4971827;28;20065;-76
2023/10/07 12:41:06;;;;;;;14.43;3.92;;;18.90;99.90;;;;;;4993472;28;20554;-76
2023/10/07 12:43:37;;;;;;;14.23;3.95;;;18.90;99.90;;;;;;4983157;28;20065;-74
2023/10/07 12:46:14;;;;;;;12.27;3.50;;;18.90;99.90;;;;;;4975186;28;20050;-73
2023/10/07 12:48:46;;;;;;;10.05;3.42;;;19.10;99.90;;;;;;4992251;28;20878;-73
2023/10/07 12:51:12;;;;;;;11.35;3.35;;;19.10;99.90;;;;;;4984919;28;20590;-72
2023/10/07 12:53:40;;;;;;;14.88;4.45;;;19.10;99.90;;;;;;5000806;28;20096;-73
2023/10/07 12:56:12;;;;;;;15.35;3.75;;;21.60;99.90;;;;;;4965988;28;20124;-73
2023/10/07 12:58:42;;;;;;;13.50;3.60;;;19.10;99.90;;;;;;4969671;28;20053;-75
2023/10/07 13:01:11;;;;;;;12.85;3.88;;;19.10;99.90;;;;;;4950632;28;20906;-75
2023/10/07 13:03:43;;;;;;;14.27;4.47;;;18.90;99.90;;;;;;4986880;28;20061;-74
2023/10/07 13:06:10;;;;;;;14.70;3.97;;;19.00;99.90;;;;;;4987778;28;20123;-76
2023/10/07 13:08:40;;;;;;;13.80;3.08;;;19.00;99.90;;;;;;4975423;28;20243;-71
2023/10/07 13:11:11;;;;;;;14.05;4.47;;;19.20;99.90;;;;;;4982263;28;20131;-72
2023/10/07 13:13:51;;;;;;;14.43;3.58;;;19.20;99.90;;;;;;4984549;28;20111;-76
2023/10/07 13:16:18;;;;;;;14.45;3.60;;;19.30;99.90;;;;;;4985829;28;20057;-75
2023/10/07 13:18:55;;;;;;;11.98;3.58;;;19.50;99.90;;;;;;4989587;28;20045;-74
2023/10/07 13:21:24;;;;;;;18.08;4.40;;;19.40;99.90;;;;;;4984279;28;20143;-73
2023/10/07 13:23:51;;;;;;;14.68;4.15;;;19.60;99.90;;;;;;4973957;28;20095;-72
2023/10/07 13:26:17;;;;;;;13.88;3.55;;;19.70;99.90;;;;;;4998089;28;20073;-72
2023/10/07 13:28:48;;;;;;;11.65;3.25;;;;;;;;;;5016003;28;20064;-73
2023/10/07 13:31:14;;;;;;;12.43;3.63;;;19.80;99.90;;;;;;5015156;28;20170;-75
2023/10/07 13:33:40;;;;;;;10.93;3.97;;;19.80;99.90;;;;;;4999293;28;20497;-73
2023/10/07 13:36:07;;;;;;;14.10;4.82;;;19.90;99.90;;;;;;5014205;28;20045;-73
2023/10/07 13:38:36;;;;;;;14.20;3.90;;;20.00;99.90;;;;;;5013848;28;20045;-68
2023/10/07 13:41:05;;;;;;;12.63;3.92;;;19.80;99.90;;;;;;5013728;28;20041;-70